Time;durP1;ratioP1;P1;durP2;ratioP2;P2;SDS_P1;SDS_P2;PMS_P1;PMS_P2;Temp;Humidity;BMP_temperature;BMP_pressure;BME280_temperature;BME280_humidity;BME280_pressure;Samples;Min_cycle;Max_cycle;Signal;HPM_P1;HPM_P2
2023/08/20 00:00:34;;;;;;;17.13;10.73;;;;;;;;;;6211591;23;20150;-93
2023/08/20 00:03:40;;;;;;;19.30;10.55;;;;;;;;;;6210537;23;20166;-91
2023/08/20 00:06:46;;;;;;;17.25;10.48;;;;;;;;;;6210437;23;20167;-92
2023/08/20 00:09:52;;;;;;;17.45;11.20;;;;;;;;;;6207657;23;20633;-90
2023/08/20 00:12:58;;;;;;;19.35;11.30;;;;;;;;;;6209678;23;20162;-92
2023/08/20 00:16:03;;;;;;;21.08;11.63;;;;;;;;;;6209755;23;20295;-91
2023/08/20 00:19:09;;;;;;;18.75;11.27;;;;;;;;;;6227287;23;20167;-93
2023/08/20 00:22:14;;;;;;;16.25;11.68;;;;;;;;;;6209700;23;20172;-91
2023/08/20 00:25:21;;;;;;;22.50;12.10;;;;;;;;;;6209872;23;20607;-94
2023/08/20 00:28:26;;;;;;;19.90;11.52;;;;;;;;;;6210468;23;20174;-93
2023/08/20 00:31:32;;;;;;;15.95;11.63;;;;;;;;;;6213574;23;20171;-91
2023/08/20 00:34:37;;;;;;;16.98;11.85;;;;;;;;;;6213229;23;20187;-93
2023/08/20 00:37:44;;;;;;;18.25;12.07;;;;;;;;;;6228359;23;20483;-92
2023/08/20 00:40:50;;;;;;;19.27;11.32;;;;;;;;;;6228523;23;20614;-93
2023/08/20 00:43:55;;;;;;;16.85;11.27;;;;;;;;;;6210808;23;20209;-92
2023/08/20 00:47:01;;;;;;;21.85;11.35;;;;;;;;;;6209085;22;20163;-93
2023/08/20 00:50:07;;;;;;;19.00;11.20;;;;;;;;;;6208565;23;20190;-93
2023/08/20 00:53:13;;;;;;;21.00;11.50;;;;;;;;;;6207693;23;20179;-92
2023/08/20 00:56:20;;;;;;;16.35;11.65;;;;;;;;;;6207653;23;20171;-91
2023/08/20 00:59:25;;;;;;;19.58;11.68;;;;;;;;;;6208483;22;20167;-90
2023/08/20 01:02:30;;;;;;;17.70;12.07;;;;;;;;;;6209155;22;20163;-93
2023/08/20 01:05:40;;;;;;;18.23;12.02;;;;;;;;;;6210230;22;20171;-93
2023/08/20 01:08:50;;;;;;;21.33;11.98;;;;;;;;;;6211315;22;20624;-94
2023/08/20 01:11:59;;;;;;;17.70;12.90;;;;;;;;;;6211748;23;20167;-93
2023/08/20 01:15:04;;;;;;;16.95;12.43;;;;;;;;;;6211869;23;20172;-90
2023/08/20 01:18:10;;;;;;;20.13;12.30;;;;;;;;;;6212218;22;20162;-92
2023/08/20 01:21:21;;;;;;;20.05;12.85;;;;;;;;;;6211808;23;20187;-92
2023/08/20 01:24:35;;;;;;;18.13;12.80;;;;;;;;;;6212393;23;20490;-92
2023/08/20 01:27:46;;;;;;;20.38;13.20;;;;;;;;;;6212002;23;20163;-92
2023/08/20 01:30:53;;;;;;;17.45;13.15;;;;;;;;;;6211203;22;20163;-91
2023/08/20 01:33:58;;;;;;;22.17;13.63;;;;;;;;;;6209895;22;20191;-92
2023/08/20 01:37:03;;;;;;;18.60;11.88;;;;;;;;;;6193995;22;20151;-92
2023/08/20 01:40:10;;;;;;;16.15;11.95;;;;;;;;;;6210869;22;20175;-94
2023/08/20 01:43:15;;;;;;;19.17;12.07;;;;;;;;;;6209197;23;20234;-93
2023/08/20 01:46:22;;;;;;;18.73;12.88;;;;;;;;;;6208476;23;20643;-90
2023/08/20 01:49:29;;;;;;;19.63;12.68;;;;;;;;;;6210065;23;20199;-92
2023/08/20 01:52:35;;;;;;;21.45;12.45;;;;;;;;;;6210139;23;20175;-92
2023/08/20 01:55:40;;;;;;;20.23;11.82;;;;;;;;;;6208939;23;20205;-91
2023/08/20 01:58:45;;;;;;;19.70;12.05;;;;;;;;;;6209919;23;20243;-91
2023/08/20 02:01:51;;;;;;;18.83;11.82;;;;;;;;;;6208458;23;20492;-91
2023/08/20 02:04:56;;;;;;;23.45;12.55;;;;;;;;;;6210731;23;20183;-91
2023/08/20 02:08:02;;;;;;;20.42;12.07;;;;;;;;;;6211186;23;20167;-95
2023/08/20 02:11:07;;;;;;;18.58;12.43;;;;;;;;;;6209949;23;20171;-91
2023/08/20 02:14:14;;;;;;;17.73;12.25;;;;;;;;;;6211297;23;20167;-93
2023/08/20 02:17:20;;;;;;;18.58;11.73;;;;;;;;;;6210516;23;20616;-92
2023/08/20 02:20:26;;;;;;;22.15;13.48;;;;;;;;;;6212054;23;20167;-93
2023/08/20 02:23:33;;;;;;;18.38;12.50;;;;;;;;;;6211128;23;20171;-92
2023/08/20 02:26:38;;;;;;;19.60;12.73;;;;;;;;;;6210714;23;20531;-93
2023/08/20 02:29:45;;;;;;;21.95;12.80;;;;;;;;;;6210791;23;20188;-93
2023/08/20 02:32:55;;;;;;;17.55;12.20;;;;;;;;;;6209048;23;20188;-91
2023/08/20 02:36:03;;;;;;;24.48;12.57;;;;;;;;;;6210416;23;20171;-93
2023/08/20 02:39:08;;;;;;;17.42;12.27;;;;;;;;;;6210766;23;20171;-92
2023/08/20 02:42:14;;;;;;;18.13;12.35;;;;;;;;;;6209148;23;20258;-91
2023/08/20 02:45:19;;;;;;;18.48;12.93;;;;;;;;;;6210196;23;20202;-93
2023/08/20 02:48:26;;;;;;;20.58;12.48;;;;;;;;;;6225754;23;20171;-93
2023/08/20 02:51:32;;;;;;;19.75;12.30;;;;;;;;;;6225210;23;20171;-92
2023/08/20 02:54:37;;;;;;;24.88;13.13;;;;;;;;;;6225936;23;20170;-92
2023/08/20 02:57:42;;;;;;;19.00;12.77;;;;;;;;;;6228261;23;20225;-89
2023/08/20 03:00:48;;;;;;;18.92;12.82;;;;;;;;;;6227603;23;20315;-90
2023/08/20 03:03:55;;;;;;;20.48;12.55;;;;;;;;;;6227981;23;20151;-93
2023/08/20 03:07:00;;;;;;;20.13;12.02;;;;;;;;;;6227780;23;20710;-92
2023/08/20 03:10:06;;;;;;;18.58;12.45;;;;;;;;;;6226803;23;20211;-92
2023/08/20 03:13:11;;;;;;;21.40;12.65;;;;;;;;;;6228518;23;20187;-91
2023/08/20 03:16:16;;;;;;;18.15;12.93;;;;;;;;;;6227539;23;20163;-95
2023/08/20 03:19:23;;;;;;;22.48;12.55;;;;;;;;;;6227506;23;20170;-93
2023/08/20 03:22:28;;;;;;;18.50;12.30;;;;;;;;;;6226437;23;20167;-88
2023/08/20 03:25:33;;;;;;;18.38;12.57;;;;;;;;;;6226186;23;20236;-93
2023/08/20 03:28:38;;;;;;;18.98;13.07;;;;;;;;;;6227123;23;20167;-91
2023/08/20 03:31:43;;;;;;;19.27;12.82;;;;;;;;;;6227111;23;20179;-91
2023/08/20 03:34:50;;;;;;;18.30;12.57;;;;;;;;;;6227467;23;20163;-93
2023/08/20 03:37:57;;;;;;;20.90;12.60;;;;;;;;;;6226803;23;20711;-92
2023/08/20 03:41:03;;;;;;;22.67;13.25;;;;;;;;;;6225750;23;20171;-91
2023/08/20 03:44:08;;;;;;;19.13;12.65;;;;;;;;;;6226810;23;20171;-91
2023/08/20 03:47:14;;;;;;;20.90;12.38;;;;;;;;;;6229182;23;20162;-93
2023/08/20 03:50:20;;;;;;;18.77;12.05;;;;;;;;;;6228996;23;20201;-91
2023/08/20 03:53:26;;;;;;;29.20;14.27;;;;;;;;;;6230262;23;20171;-92
2023/08/20 03:56:31;;;;;;;18.77;12.48;;;;;;;;;;6229777;23;20170;-92
2023/08/20 03:59:37;;;;;;;20.55;12.88;;;;;;;;;;6229280;23;20186;-94
2023/08/20 04:02:53;;;;;;;22.30;12.65;;;;;;;;;;6227489;23;20198;-93
2023/08/20 04:06:00;;;;;;;17.02;12.13;;;;;;;;;;6228879;23;20163;-90
2023/08/20 04:09:06;;;;;;;18.98;12.27;;;;;;;;;;6228862;23;20618;-92
2023/08/20 04:12:11;;;;;;;17.95;12.15;;;;;;;;;;6228414;23;20257;-92
2023/08/20 04:15:16;;;;;;;18.52;11.80;;;;;;;;;;6227409;23;20505;-90
2023/08/20 04:18:22;;;;;;;17.55;11.88;;;;;;;;;;6228343;23;20155;-92
2023/08/20 04:21:28;;;;;;;18.77;11.63;;;;;;;;;;6227957;23;20220;-92
2023/08/20 04:24:33;;;;;;;18.50;11.75;;;;;;;;;;6227077;23;20631;-91
2023/08/20 04:27:38;;;;;;;17.23;10.73;;;;;;;;;;6227211;23;20167;-89
2023/08/20 04:30:44;;;;;;;17.33;11.25;;;;;;;;;;6227853;23;20191;-90
2023/08/20 04:33:51;;;;;;;18.70;12.20;;;;;;;;;;6227859;23;20150;-94
2023/08/20 04:37:00;;;;;;;21.30;12.27;;;;;;;;;;6228999;23;20275;-92
2023/08/20 04:40:06;;;;;;;17.55;12.13;;;;;;;;;;6227832;23;20179;-91
2023/08/20 04:43:13;;;;;;;17.83;10.98;;;;;;;;;;6228760;23;20265;-90
2023/08/20 04:46:18;;;;;;;20.95;11.30;;;;;;;;;;6240833;23;20528;-92
2023/08/20 04:49:28;;;;;;;18.00;11.70;;;;;;;;;;6241922;23;20191;-93
2023/08/20 04:52:34;;;;;;;19.20;12.02;;;;;;;;;;6241784;23;20225;-92
2023/08/20 04:55:40;;;;;;;17.42;11.93;;;;;;;;;;6242423;23;20173;-94
2023/08/20 04:58:46;;;;;;;19.02;11.90;;;;;;;;;;6239920;23;20166;-90
2023/08/20 05:02:00;;;;;;;21.58;12.82;;;;;;;;;;6241306;23;20162;-92
2023/08/20 05:05:37;;;;;;;17.85;12.13;;;;;;;;;;6259838;22;20166;-94
2023/08/20 05:08:44;;;;;;;20.13;12.45;;;;;;;;;;6241977;23;20171;-92
2023/08/20 05:11:49;;;;;;;17.48;11.73;;;;;;;;;;6238971;23;20190;-91
2023/08/20 05:14:55;;;;;;;15.43;11.88;;;;;;;;;;6257124;22;20146;-93
2023/08/20 05:18:00;;;;;;;21.30;12.80;;;;;;;;;;6240123;22;20186;-91
2023/08/20 05:21:05;;;;;;;18.90;12.25;;;;;;;;;;6239158;22;20170;-92
2023/08/20 05:24:12;;;;;;;18.50;11.55;;;;;;;;;;6240085;23;20171;-93
2023/08/20 05:27:17;;;;;;;17.42;12.18;;;;;;;;;;6238237;23;20170;-90
2023/08/20 05:30:25;;;;;;;23.45;12.52;;;;;;;;;;6258219;22;20190;-93
2023/08/20 05:33:30;;;;;;;19.25;11.55;;;;;;;;;;6240191;23;20235;-92
2023/08/20 05:36:35;;;;;;;16.85;11.60;;;;;;;;;;6242431;23;20166;-93
2023/08/20 05:39:42;;;;;;;16.15;11.25;;;;;;;;;;6242218;23;20170;-91
2023/08/20 05:42:51;;;;;;;21.58;11.95;;;;;;;;;;6241016;22;20289;-92
2023/08/20 05:45:57;;;;;;;13.93;10.73;;;;;;;;;;6240919;22;20256;-94
2023/08/20 05:49:02;;;;;;;22.27;10.55;;;;;;;;;;6240653;23;20221;-92
2023/08/20 05:52:12;;;;;;;17.25;11.60;;;;;;;;;;6242015;22;20170;-96
2023/08/20 05:55:19;;;;;;;15.70;11.15;;;;;;;;;;6240827;22;20263;-92
2023/08/20 05:58:25;;;;;;;15.43;10.73;;;;;;;;;;6240971;23;20175;-89
2023/08/20 06:01:30;;;;;;;13.85;9.98;;;;;;;;;;6240834;23;20170;-92
2023/08/20 06:04:35;;;;;;;16.48;11.15;;;;;;;;;;6239551;23;20171;-91
2023/08/20 06:07:41;;;;;;;18.95;10.95;;;;;;;;;;6241957;23;20211;-90
2023/08/20 06:10:47;;;;;;;12.98;10.10;;;;;;;;;;6240646;22;20193;-92
2023/08/20 06:13:59;;;;;;;14.75;10.25;;;;;;;;;;6241069;23;20478;-92
2023/08/20 06:17:05;;;;;;;16.55;10.00;;;;;;;;;;6242896;23;20170;-91
2023/08/20 06:20:11;;;;;;;13.77;9.93;;;;;;;;;;6243388;23;20170;-95
2023/08/20 06:23:16;;;;;;;17.05;9.30;;;;;;;;;;6242618;23;20154;-93
2023/08/20 06:26:22;;;;;;;15.18;9.80;;;;;;;;;;6242502;23;20610;-91
2023/08/20 06:29:27;;;;;;;13.98;9.23;;;;;;;;;;6243309;23;20193;-90
2023/08/20 06:32:36;;;;;;;14.27;9.52;;;;;;;;;;6245399;23;20190;-91
2023/08/20 06:35:43;;;;;;;14.70;10.38;;;;;;;;;;6245352;22;20151;-92
2023/08/20 06:38:49;;;;;;;18.15;9.07;;;;;;;;;;6246402;22;20150;-92
2023/08/20 06:41:55;;;;;;;12.52;9.13;;;;;;;;;;6247307;22;20166;-91
2023/08/20 06:45:03;;;;;;;13.93;9.65;;;;;;;;;;6235085;23;20190;-92
2023/08/20 06:48:08;;;;;;;12.77;9.00;;;;;;;;;;6215308;23;20427;-90
2023/08/20 06:51:15;;;;;;;10.68;8.68;;;;;;;;;;6215039;23;20195;-90
2023/08/20 06:54:21;;;;;;;13.32;8.90;;;;;;;;;;6215280;23;20171;-90
2023/08/20 06:57:28;;;;;;;17.23;8.82;;;;;;;;;;6212937;23;20167;-94
2023/08/20 07:00:33;;;;;;;11.65;8.38;;;;;;;;;;6212206;23;20171;-92
2023/08/20 07:03:39;;;;;;;12.10;8.15;;;;;;;;;;6211940;23;20211;-91
2023/08/20 07:06:44;;;;;;;10.90;7.70;;;;;;;;;;6212132;23;20207;-92
2023/08/20 07:09:49;;;;;;;10.18;7.97;;;;;;;;;;6210718;23;20175;-90
2023/08/20 07:12:58;;;;;;;12.20;9.07;;;;;;;;;;6215852;23;20270;-92
2023/08/20 07:16:03;;;;;;;14.60;9.25;;;;;;;;;;6215811;23;20167;-93
2023/08/20 07:19:09;;;;;;;12.07;9.25;;;;;;;;;;6214834;23;20163;-95
2023/08/20 07:22:14;;;;;;;12.93;8.75;;;;;;;;;;6215077;23;20174;-94
2023/08/20 07:25:19;;;;;;;13.98;8.55;;;;;;;;;;6214693;23;20167;-91
2023/08/20 07:28:56;;;;;;;14.35;8.27;;;;;;;;;;6215813;23;20186;-92
2023/08/20 07:31:52;;;;;;;12.23;8.68;;;;;;;;;;6211836;23;20190;-91
2023/08/20 07:34:59;;;;;;;10.07;8.50;;;;;;;;;;6212929;23;20166;-92
2023/08/20 07:38:04;;;;;;;12.90;8.60;;;;;;;;;;6210875;23;20497;-94
2023/08/20 07:41:12;;;;;;;12.50;7.78;;;;;;;;;;6212650;23;20218;-92
2023/08/20 07:44:19;;;;;;;12.95;8.40;;;;;;;;;;6196618;23;20210;-91
2023/08/20 07:47:24;;;;;;;16.70;8.80;;;;;;;;;;6213177;23;20182;-92
2023/08/20 07:50:29;;;;;;;13.25;8.32;;;;;;;;;;6211554;23;20237;-92
2023/08/20 07:53:35;;;;;;;18.58;7.82;;;;;;;;;;6208781;23;20223;-93
2023/08/20 07:56:40;;;;;;;9.57;8.07;;;;;;;;;;6207062;23;20170;-93
2023/08/20 07:59:46;;;;;;;12.82;8.02;;;;;;;;;;6207854;23;20214;-87
2023/08/20 08:02:52;;;;;;;10.63;7.78;;;;;;;;;;6208798;23;20170;-92
2023/08/20 08:05:57;;;;;;;14.18;7.45;;;;;;;;;;6210610;23;20170;-93
2023/08/20 08:09:16;;;;;;;8.98;7.60;;;;;;;;;;6211350;23;20162;-90
2023/08/20 08:12:21;;;;;;;8.45;7.13;;;;;;;;;;6210294;23;20626;-91
2023/08/20 08:15:30;;;;;;;8.43;6.60;;;;;;;;;;6209945;23;20166;-93
2023/08/20 08:18:35;;;;;;;9.43;6.53;;;;;;;;;;6209947;23;20166;-93
2023/08/20 08:21:40;;;;;;;8.75;6.25;;;;;;;;;;6207666;23;20753;-92
2023/08/20 08:24:45;;;;;;;10.05;6.82;;;;;;;;;;6210393;23;20167;-94
2023/08/20 08:27:51;;;;;;;8.07;6.60;;;;;;;;;;6210200;23;20175;-92
2023/08/20 08:30:57;;;;;;;9.70;7.13;;;;;;;;;;6210678;23;20194;-91
2023/08/20 08:34:03;;;;;;;10.77;6.78;;;;;;;;;;6212326;23;20171;-93
2023/08/20 08:37:08;;;;;;;10.57;7.40;;;;;;;;;;6213134;23;20610;-93
2023/08/20 08:40:14;;;;;;;10.45;6.65;;;;;;;;;;6209953;23;20218;-94
2023/08/20 08:43:19;;;;;;;10.13;6.85;;;;;;;;;;6209846;23;20667;-93
2023/08/20 08:46:27;;;;;;;10.27;6.90;;;;;;;;;;6238010;23;20189;-95
2023/08/20 08:49:33;;;;;;;12.43;7.25;;;;;;;;;;6241065;23;20150;-93
2023/08/20 08:52:43;;;;;;;10.07;6.70;;;;;;;;;;6242372;23;20182;-93
2023/08/20 08:55:49;;;;;;;9.38;7.00;;;;;;;;;;6242300;23;20162;-93
2023/08/20 08:58:54;;;;;;;11.68;6.85;;;;;;;;;;6243216;22;20214;-92
2023/08/20 09:02:09;;;;;;;13.32;6.75;;;;;;;;;;6244674;23;20169;-95
2023/08/20 09:05:15;;;;;;;8.48;6.45;;;;;;;;;;6245566;22;20235;-93
2023/08/20 09:08:24;;;;;;;11.75;6.80;;;;;;;;;;6244952;23;20380;-92
2023/08/20 09:11:36;;;;;;;8.27;6.13;;;;;;;;;;6246214;23;20312;-92
2023/08/20 09:14:41;;;;;;;12.52;6.40;;;;;;;;;;6261213;22;20178;-93
2023/08/20 09:17:57;;;;;;;8.13;6.10;;;;;;;;;;6244428;23;20277;-93
2023/08/20 09:21:02;;;;;;;8.40;5.95;;;;;;;;;;6243829;23;20170;-92
2023/08/20 09:24:08;;;;;;;6.50;5.80;;;;;;;;;;6244686;22;20210;-93
2023/08/20 09:27:14;;;;;;;9.38;6.15;;;;;;;;;;6245972;23;20601;-93
2023/08/20 09:30:20;;;;;;;7.57;5.20;;;;;;;;;;6248486;23;20194;-91
2023/08/20 09:33:28;;;;;;;6.32;5.65;;;;;;;;;;6249713;22;20208;-93
2023/08/20 09:36:34;;;;;;;8.35;6.20;;;;;;;;;;6249557;23;20162;-91
2023/08/20 09:39:44;;;;;;;10.40;6.25;;;;;;;;;;6251338;23;20157;-91
2023/08/20 09:42:51;;;;;;;9.65;6.38;;;;;;;;;;6252355;23;20177;-94
2023/08/20 09:45:57;;;;;;;6.90;6.07;;;;;;;;;;6248722;22;20209;-94
2023/08/20 09:49:04;;;;;;;12.27;6.38;;;;;;;;;;6247044;23;20162;-93
2023/08/20 09:52:11;;;;;;;11.25;5.57;;;;;;;;;;6243546;22;20178;-94
2023/08/20 09:55:22;;;;;;;11.40;6.30;;;;;;;;;;6245300;22;20176;-93
2023/08/20 09:58:28;;;;;;;9.15;5.95;;;;;;;;;;6247709;23;20214;-95
2023/08/20 10:01:34;;;;;;;7.63;5.70;;;;;;;;;;6249523;23;20613;-94
2023/08/20 10:04:41;;;;;;;9.70;5.50;;;;;;;;;;6249681;22;20165;-94
2023/08/20 10:07:47;;;;;;;7.18;5.32;;;;;;;;;;6250414;22;20157;-95
2023/08/20 10:10:52;;;;;;;10.23;5.40;;;;;;;;;;6249606;22;20238;-93
2023/08/20 10:13:58;;;;;;;12.73;5.32;;;;;;;;;;6250175;23;20214;-93
2023/08/20 10:17:08;;;;;;;5.50;4.72;;;;;;;;;;6249189;23;20189;-91
2023/08/20 10:20:16;;;;;;;9.48;4.65;;;;;;;;;;6248619;22;20158;-95
2023/08/20 10:23:26;;;;;;;5.70;4.47;;;;;;;;;;6249029;22;20174;-92
2023/08/20 10:26:35;;;;;;;8.18;4.55;;;;;;;;;;6244733;23;20166;-94
2023/08/20 10:29:42;;;;;;;7.13;4.60;;;;;;;;;;6245013;23;20166;-93
2023/08/20 10:32:48;;;;;;;8.77;4.50;;;;;;;;;;6245018;23;20177;-93
2023/08/20 10:35:55;;;;;;;5.15;4.45;;;;;;;;;;6245061;22;20150;-94
2023/08/20 10:39:04;;;;;;;6.68;4.63;;;;;;;;;;6244776;23;20165;-93
2023/08/20 10:42:11;;;;;;;7.20;4.40;;;;;;;;;;6245100;23;20264;-93
2023/08/20 10:45:16;;;;;;;7.47;4.78;;;;;;;;;;6245841;23;20178;-94
2023/08/20 10:48:22;;;;;;;9.57;4.38;;;;;;;;;;6244093;23;20670;-93
2023/08/20 10:51:29;;;;;;;7.57;4.72;;;;;;;;;;6242878;23;20213;-91
2023/08/20 10:54:39;;;;;;;7.00;4.32;;;;;;;;;;6241690;23;20527;-93
2023/08/20 10:57:44;;;;;;;5.70;4.75;;;;;;;;;;6239293;23;20555;-93
2023/08/20 11:01:05;;;;;;;7.70;5.30;;;;;;;;;;6242545;23;20172;-93
2023/08/20 11:04:11;;;;;;;5.65;4.35;;;;;;;;;;6242487;23;20159;-93
2023/08/20 11:07:20;;;;;;;7.38;4.40;;;;;;;;;;6243291;23;20170;-94
2023/08/20 11:10:25;;;;;;;9.88;8.88;;;;;;;;;;6243980;23;20173;-92
2023/08/20 11:13:32;;;;;;;6.28;4.72;;;;;;;;;;6242232;23;20227;-92
2023/08/20 11:16:37;;;;;;;9.90;5.68;;;;;;;;;;6241534;23;20170;-93
2023/08/20 11:19:43;;;;;;;10.40;5.70;;;;;;;;;;6242550;22;20167;-94
2023/08/20 11:22:50;;;;;;;6.90;5.05;;;;;;;;;;6244024;22;20270;-92
2023/08/20 11:25:56;;;;;;;6.57;4.90;;;;;;;;;;6242465;23;20281;-92
2023/08/20 11:29:01;;;;;;;16.25;4.90;;;;;;;;;;6243008;23;20161;-95
2023/08/20 11:32:07;;;;;;;6.25;4.90;;;;;;;;;;6243424;23;20490;-93
2023/08/20 11:35:14;;;;;;;6.47;5.03;;;;;;;;;;6241901;23;20170;-91
2023/08/20 11:38:21;;;;;;;9.65;5.00;;;;;;;;;;6241627;23;20181;-94
2023/08/20 11:41:27;;;;;;;6.38;4.78;;;;;;;;;;6244473;23;20284;-94
2023/08/20 11:44:46;;;;;;;5.28;4.28;;;;;;;;;;6240462;23;20186;-94
2023/08/20 11:47:58;;;;;;;8.18;4.85;;;;;;;;;;6213044;23;20174;-94
2023/08/20 11:51:03;;;;;;;7.50;4.78;;;;;;;;;;6213045;23;20166;-93
2023/08/20 11:54:10;;;;;;;5.95;4.15;;;;;;;;;;6213584;23;20173;-94
2023/08/20 11:57:16;;;;;;;7.70;4.20;;;;;;;;;;6212370;23;20165;-93
2023/08/20 12:00:28;;;;;;;6.38;4.20;;;;;;;;;;6229256;23;20166;-92
2023/08/20 12:03:33;;;;;;;5.20;4.55;;;;;;;;;;6230374;23;20163;-95
2023/08/20 12:06:40;;;;;;;7.90;4.90;;;;;;;;;;6212015;23;20215;-94
2023/08/20 12:09:48;;;;;;;8.60;4.20;;;;;;;;;;6211850;23;20174;-94
2023/08/20 12:12:53;;;;;;;6.88;4.25;;;;;;;;;;6214458;23;20213;-95
2023/08/20 12:15:59;;;;;;;7.22;4.70;;;;;;;;;;6208991;23;20170;-91
2023/08/20 12:19:04;;;;;;;4.70;3.95;;;;;;;;;;6209758;23;20168;-91
2023/08/20 12:22:10;;;;;;;9.68;4.32;;;;;;;;;;6211078;23;20190;-92
2023/08/20 12:25:16;;;;;;;5.20;4.38;;;;;;;;;;6211365;23;20166;-91
2023/08/20 12:28:22;;;;;;;6.45;4.20;;;;;;;;;;6210269;23;20893;-91
2023/08/20 12:31:27;;;;;;;7.43;4.65;;;;;;;;;;6213034;23;20155;-91
2023/08/20 12:34:32;;;;;;;7.97;4.32;;;;;;;;;;6213757;23;20187;-93
2023/08/20 12:37:37;;;;;;;6.20;4.32;;;;;;;;;;6210952;23;20205;-93
2023/08/20 12:40:44;;;;;;;13.57;5.00;;;;;;;;;;6215695;23;20178;-91
2023/08/20 12:43:52;;;;;;;5.95;4.25;;;;;;;;;;6212403;23;20614;-91
2023/08/20 12:46:58;;;;;;;5.45;4.88;;;;;;;;;;6212726;23;20149;-91
2023/08/20 12:50:04;;;;;;;8.27;4.20;;;;;;;;;;6212546;23;20239;-92
2023/08/20 12:53:09;;;;;;;9.98;4.43;;;;;;;;;;6213131;23;20186;-92
2023/08/20 12:56:16;;;;;;;9.65;4.50;;;;;;;;;;6214408;23;20174;-92
2023/08/20 12:59:22;;;;;;;7.75;4.10;;;;;;;;;;6214967;23;20170;-90
2023/08/20 13:02:27;;;;;;;7.70;3.92;;;;;;;;;;6215478;23;20267;-91
2023/08/20 13:05:32;;;;;;;5.97;3.80;;;;;;;;;;6215253;23;20227;-92
2023/08/20 13:14:32;;;;;;;7.00;4.47;;;;;;;;;;6221591;22;20194;-94
2023/08/20 13:17:38;;;;;;;8.50;4.25;;;;;;;;;;6216102;23;20155;-91
2023/08/20 13:20:43;;;;;;;7.43;4.10;;;;;;;;;;6215689;23;20274;-90
2023/08/20 13:23:48;;;;;;;6.85;4.32;;;;;;;;;;6216506;23;20167;-92
2023/08/20 13:26:54;;;;;;;6.50;4.30;;;;;;;;;;6215652;23;20209;-92
2023/08/20 13:30:04;;;;;;;5.28;4.20;;;;;;;;;;6215206;23;20147;-91
2023/08/20 13:33:09;;;;;;;7.93;4.00;;;;;;;;;;6214054;23;20150;-94
2023/08/20 13:36:15;;;;;;;4.97;4.00;;;;;;;;;;6214444;23;20210;-91
2023/08/20 13:39:20;;;;;;;8.27;4.20;;;;;;;;;;6213769;23;20166;-90
2023/08/20 13:42:25;;;;;;;5.97;4.20;;;;;;;;;;6213910;23;20237;-92
2023/08/20 13:45:32;;;;;;;7.25;3.53;;;;;;;;;;6213794;23;20178;-93
2023/08/20 13:48:37;;;;;;;8.27;4.20;;;;;;;;;;6230575;23;20155;-91
2023/08/20 13:51:43;;;;;;;5.40;4.15;;;;;;;;;;6231130;23;20226;-91
2023/08/20 13:54:48;;;;;;;6.15;4.20;;;;;;;;;;6213043;23;20162;-90
2023/08/20 13:57:53;;;;;;;5.90;4.22;;;;;;;;;;6214472;23;20212;-93
2023/08/20 14:01:00;;;;;;;8.02;4.20;;;;;;;;;;6212779;23;20619;-91
2023/08/20 14:04:06;;;;;;;8.65;4.47;;;;;;;;;;6216305;23;20216;-89
2023/08/20 14:07:11;;;;;;;6.63;4.10;;;;;;;;;;6214096;23;20170;-91
2023/08/20 14:10:17;;;;;;;7.28;4.13;;;;;;;;;;6211836;23;20174;-91
2023/08/20 14:13:23;;;;;;;4.72;3.50;;;;;;;;;;6210188;23;20166;-91
2023/08/20 14:16:29;;;;;;;6.70;3.97;;;;;;;;;;6209949;23;20175;-92
2023/08/20 14:19:34;;;;;;;6.80;4.00;;;;;;;;;;6211446;23;20231;-92
2023/08/20 14:22:39;;;;;;;9.95;4.13;;;;;;;;;;6212669;23;20193;-93
2023/08/20 14:25:44;;;;;;;8.00;4.20;;;;;;;;;;6212822;23;20238;-93
2023/08/20 14:28:52;;;;;;;4.45;3.85;;;;;;;;;;6211437;23;20170;-91
2023/08/20 14:31:58;;;;;;;6.95;3.80;;;;;;;;;;6212030;23;20174;-91
2023/08/20 14:35:04;;;;;;;7.50;3.72;;;;;;;;;;6211942;23;20170;-93
2023/08/20 14:38:09;;;;;;;4.90;3.95;;;;;;;;;;6213678;23;20243;-95
2023/08/20 14:41:15;;;;;;;7.18;3.65;;;;;;;;;;6212780;23;20174;-94
2023/08/20 14:44:23;;;;;;;5.78;3.95;;;;;;;;;;6212291;23;20234;-92
2023/08/20 14:47:29;;;;;;;5.75;3.90;;;;;;;;;;6217491;23;20214;-92
2023/08/20 14:50:35;;;;;;;6.82;3.83;;;;;;;;;;6215308;23;20147;-94
2023/08/20 14:53:40;;;;;;;5.10;3.78;;;;;;;;;;6213689;23;20203;-95
2023/08/20 14:56:45;;;;;;;8.77;3.70;;;;;;;;;;6213017;23;20603;-93
2023/08/20 14:59:51;;;;;;;9.77;4.03;;;;;;;;;;6214825;23;20170;-93
2023/08/20 15:03:00;;;;;;;6.93;3.85;;;;;;;;;;6214498;23;20226;-93
2023/08/20 15:06:06;;;;;;;7.05;3.80;;;;;;;;;;6215138;23;20246;-94
2023/08/20 15:09:15;;;;;;;10.32;3.90;;;;;;;;;;6214326;23;20166;-91
2023/08/20 15:12:20;;;;;;;7.13;4.00;;;;;;;;;;6215391;23;20170;-93
2023/08/20 15:15:28;;;;;;;4.30;3.67;;;;;;;;;;6210341;23;20265;-93
2023/08/20 15:18:35;;;;;;;8.60;4.20;;;;;;;;;;6212487;23;20155;-91
2023/08/20 15:21:40;;;;;;;5.70;4.00;;;;;;;;;;6214593;23;20210;-92
2023/08/20 15:24:47;;;;;;;6.25;4.00;;;;;;;;;;6213480;23;20162;-92
2023/08/20 15:27:53;;;;;;;9.70;4.05;;;;;;;;;;6213652;23;20236;-94
2023/08/20 15:30:58;;;;;;;4.63;3.80;;;;;;;;;;6211898;23;20213;-91
2023/08/20 15:34:05;;;;;;;6.50;4.00;;;;;;;;;;6212133;23;20150;-93
2023/08/20 15:37:10;;;;;;;9.90;3.90;;;;;;;;;;6212614;23;20247;-92
2023/08/20 15:40:16;;;;;;;7.40;4.55;;;;;;;;;;6211499;23;20261;-93
2023/08/20 15:43:21;;;;;;;7.60;4.20;;;;;;;;;;6213060;23;20198;-93
2023/08/20 15:46:27;;;;;;;6.32;3.90;;;;;;;;;;6214630;23;20173;-92
2023/08/20 15:49:34;;;;;;;8.50;4.15;;;;;;;;;;6210761;23;20170;-93
2023/08/20 15:52:39;;;;;;;6.25;4.25;;;;;;;;;;6212456;23;20245;-92
2023/08/20 15:55:45;;;;;;;6.53;4.13;;;;;;;;;;6215047;23;20170;-95
2023/08/20 15:58:50;;;;;;;6.78;4.60;;;;;;;;;;6214680;23;20226;-93
2023/08/20 16:01:56;;;;;;;10.43;4.40;;;;;;;;;;6213710;23;20201;-92
2023/08/20 16:05:05;;;;;;;7.68;4.25;;;;;;;;;;6211795;23;20190;-91
2023/08/20 16:08:10;;;;;;;9.60;4.57;;;;;;;;;;6213236;23;20181;-92
2023/08/20 16:11:16;;;;;;;8.32;4.80;;;;;;;;;;6213684;23;20226;-92
2023/08/20 16:14:25;;;;;;;6.85;4.43;;;;;;;;;;6025242;23;4002633;-92
2023/08/20 16:17:30;;;;;;;7.07;4.40;;;;;;;;;;6212207;23;20170;-94
2023/08/20 16:20:37;;;;;;;7.53;4.65;;;;;;;;;;6211753;23;20166;-92
2023/08/20 16:23:43;;;;;;;11.85;4.70;;;;;;;;;;6211871;23;20210;-91
2023/08/20 16:26:50;;;;;;;9.88;5.95;;;;;;;;;;6213742;23;20175;-93
2023/08/20 16:29:56;;;;;;;9.75;6.00;;;;;;;;;;6212581;23;20171;-93
2023/08/20 16:33:01;;;;;;;8.63;5.25;;;;;;;;;;6212077;23;20155;-93
2023/08/20 16:36:09;;;;;;;11.23;5.60;;;;;;;;;;6212648;23;20170;-90
2023/08/20 16:39:17;;;;;;;11.90;5.22;;;;;;;;;;6210637;23;20166;-93
2023/08/20 16:42:23;;;;;;;10.52;5.03;;;;;;;;;;6211765;23;20170;-91
2023/08/20 16:45:28;;;;;;;11.80;5.22;;;;;;;;;;6209691;23;20174;-91
2023/08/20 16:48:39;;;;;;;8.40;4.75;;;;;;;;;;6210886;23;20162;-92
2023/08/20 16:51:46;;;;;;;9.13;4.78;;;;;;;;;;6210867;23;20166;-90
2023/08/20 16:54:51;;;;;;;7.35;4.90;;;;;;;;;;6211719;23;20171;-92
2023/08/20 16:57:57;;;;;;;7.88;4.75;;;;;;;;;;6211301;23;20167;-89
2023/08/20 17:01:04;;;;;;;13.95;7.22;;;;;;;;;;6213349;23;20210;-90
2023/08/20 17:04:09;;;;;;;10.43;4.97;;;;;;;;;;6214351;23;20201;-91
2023/08/20 17:07:16;;;;;;;8.82;5.25;;;;;;;;;;6216073;23;20175;-91
2023/08/20 17:10:23;;;;;;;9.07;4.95;;;;;;;;;;6216964;23;20166;-92
2023/08/20 17:20:08;;;;;;;7.47;4.60;;;;;;;;;;6218692;23;20183;-94
2023/08/20 17:23:17;;;;;;;8.68;4.78;;;;;;;;;;6217119;23;20212;-93
2023/08/20 17:26:23;;;;;;;9.82;5.00;;;;;;;;;;6217480;23;20163;-92
2023/08/20 17:29:28;;;;;;;10.55;5.10;;;;;;;;;;6216480;23;20174;-92
2023/08/20 17:35:53;;;;;;;10.40;5.63;;;;;;;;;;6216216;23;20241;-93
2023/08/20 17:38:59;;;;;;;15.25;4.65;;;;;;;;;;6216254;23;20167;-92
2023/08/20 17:42:05;;;;;;;10.23;5.03;;;;;;;;;;6212738;23;20151;-94
2023/08/20 17:45:11;;;;;;;13.13;5.18;;;;;;;;;;6215000;23;20159;-91
2023/08/20 17:48:16;;;;;;;14.45;5.50;;;;;;;;;;6213428;23;20223;-92
2023/08/20 17:51:24;;;;;;;9.65;5.10;;;;;;;;;;6215163;23;20162;-91
2023/08/20 17:54:32;;;;;;;9.35;6.10;;;;;;;;;;6213921;23;20168;-92
2023/08/20 17:57:40;;;;;;;9.57;5.60;;;;;;;;;;6216183;23;20155;-90
2023/08/20 18:00:47;;;;;;;10.70;5.40;;;;;;;;;;6217031;23;20163;-91
2023/08/20 18:03:55;;;;;;;8.27;5.32;;;;;;;;;;6216234;23;20506;-92
2023/08/20 18:07:03;;;;;;;8.65;5.97;;;;;;;;;;6215528;23;20171;-91
2023/08/20 18:10:10;;;;;;;14.73;5.82;;;;;;;;;;6214428;23;20164;-91
2023/08/20 18:13:16;;;;;;;19.00;6.60;;;;;;;;;;6212970;23;20160;-91
2023/08/20 18:16:21;;;;;;;9.70;6.18;;;;;;;;;;6213822;23;20159;-91
2023/08/20 18:19:28;;;;;;;10.23;6.68;;;;;;;;;;6216360;23;20224;-94
2023/08/20 18:22:34;;;;;;;9.93;6.03;;;;;;;;;;6215079;23;20164;-93
2023/08/20 18:25:42;;;;;;;100.18;63.30;;;;;;;;;;6212747;23;20202;-90
2023/08/20 18:28:47;;;;;;;36.10;10.10;;;;;;;;;;6226678;23;20150;-90
2023/08/20 18:31:52;;;;;;;14.25;8.05;;;;;;;;;;6230425;23;20155;-92
2023/08/20 18:34:57;;;;;;;17.05;7.30;;;;;;;;;;6231465;23;20171;-92
2023/08/20 18:38:03;;;;;;;11.80;6.82;;;;;;;;;;6211585;23;20215;-92